createdAt,value
2019-03-31T00:01:07.261Z,0.00
2019-03-31T00:01:54.306Z,0.00
2019-03-31T00:02:53.297Z,0.00
2019-03-31T00:03:53.287Z,0.00
2019-03-31T00:04:53.282Z,0.00
2019-03-31T00:05:53.263Z,0.00
2019-03-31T00:06:53.260Z,0.00
2019-03-31T00:07:53.240Z,0.00
2019-03-31T00:08:53.233Z,0.00
2019-03-31T00:09:53.229Z,0.00
2019-03-31T00:10:53.209Z,0.00
2019-03-31T00:11:53.200Z,0.00
2019-03-31T00:12:53.186Z,0.00
2019-03-31T00:13:53.176Z,0.00
2019-03-31T00:14:53.174Z,0.00
2019-03-31T00:15:53.155Z,0.00
2019-03-31T00:16:53.143Z,0.00
2019-03-31T00:17:53.135Z,0.00
2019-03-31T00:18:53.122Z,0.00
2019-03-31T00:19:53.124Z,0.00
2019-03-31T00:20:53.102Z,0.00
2019-03-31T00:21:53.094Z,0.00
2019-03-31T00:22:53.080Z,0.00
2019-03-31T00:23:53.068Z,0.00
2019-03-31T00:24:53.559Z,0.00
2019-03-31T00:25:53.045Z,0.00
2019-03-31T00:26:53.035Z,0.00
2019-03-31T00:27:53.023Z,0.00
2019-03-31T00:28:53.013Z,0.00
2019-03-31T00:29:53.010Z,0.00
2019-03-31T00:30:52.994Z,0.00
2019-03-31T00:31:52.980Z,0.00
2019-03-31T00:32:52.969Z,0.00
2019-03-31T00:33:52.957Z,0.00
2019-03-31T00:34:52.960Z,0.00
2019-03-31T00:35:52.941Z,0.00
2019-03-31T00:36:52.929Z,0.00
2019-03-31T00:37:52.915Z,0.00
2019-03-31T00:38:52.903Z,0.00
2019-03-31T00:39:52.902Z,0.00
2019-03-31T00:40:52.881Z,0.00
2019-03-31T00:41:52.871Z,0.00
2019-03-31T00:42:52.863Z,0.00
2019-03-31T00:43:52.848Z,0.00
2019-03-31T00:44:52.846Z,0.00
2019-03-31T00:45:52.828Z,0.00
2019-03-31T00:46:52.817Z,0.00
2019-03-31T00:47:52.807Z,0.00
2019-03-31T00:48:52.794Z,0.00
2019-03-31T00:49:52.794Z,0.00
2019-03-31T00:50:52.776Z,0.00
2019-03-31T00:51:52.764Z,0.00
2019-03-31T00:52:52.750Z,0.00
2019-03-31T00:53:52.743Z,0.00
2019-03-31T00:54:52.746Z,0.00
2019-03-31T00:55:52.720Z,0.00
2019-03-31T00:56:52.712Z,0.00
2019-03-31T00:57:52.696Z,0.00
2019-03-31T00:58:52.688Z,0.00
2019-03-31T00:59:52.871Z,0.00
2019-03-31T01:00:52.665Z,0.00
2019-03-31T01:01:52.654Z,0.00
2019-03-31T01:02:52.643Z,0.00
2019-03-31T01:03:52.636Z,0.00
2019-03-31T01:04:52.623Z,0.00
2019-03-31T01:05:52.669Z,0.00
2019-03-31T01:06:52.599Z,0.00
2019-03-31T01:07:52.589Z,0.00
2019-03-31T01:08:52.580Z,0.00
2019-03-31T01:09:52.567Z,0.00
2019-03-31T01:10:52.566Z,0.00
2019-03-31T01:11:52.547Z,0.00
2019-03-31T01:12:52.534Z,0.00
2019-03-31T01:13:52.523Z,0.00
2019-03-31T01:14:52.511Z,0.00
2019-03-31T01:15:52.515Z,0.00
2019-03-31T01:16:52.492Z,0.00
2019-03-31T01:17:52.481Z,0.00
2019-03-31T01:18:52.470Z,0.00
2019-03-31T01:19:52.458Z,0.00
2019-03-31T01:20:52.456Z,0.00
2019-03-31T01:21:52.437Z,0.00
2019-03-31T01:22:52.430Z,0.00
2019-03-31T01:23:52.415Z,0.00
2019-03-31T01:24:52.403Z,0.00
2019-03-31T01:25:52.407Z,0.00
2019-03-31T01:26:52.385Z,0.00
2019-03-31T01:27:52.381Z,0.00
2019-03-31T01:28:52.361Z,0.00
2019-03-31T01:29:52.348Z,0.00
2019-03-31T01:30:52.347Z,0.00
2019-03-31T01:31:52.326Z,0.00
2019-03-31T01:32:52.315Z,0.00
2019-03-31T01:33:52.304Z,0.00
2019-03-31T01:34:52.294Z,0.00
2019-03-31T01:35:52.292Z,0.00
2019-03-31T01:36:52.271Z,0.00
2019-03-31T01:37:52.261Z,0.00
2019-03-31T01:38:52.250Z,0.00
2019-03-31T01:39:52.241Z,0.00
2019-03-31T01:40:52.237Z,0.00
2019-03-31T01:41:52.216Z,0.00
2019-03-31T01:42:52.206Z,0.00
2019-03-31T01:43:52.194Z,0.00
2019-03-31T01:44:52.185Z,0.00
2019-03-31T01:45:52.184Z,0.00
2019-03-31T01:46:52.163Z,0.00
2019-03-31T01:47:52.153Z,0.00
2019-03-31T01:48:52.141Z,0.00
2019-03-31T01:49:52.132Z,0.00
2019-03-31T01:50:52.128Z,0.00
2019-03-31T01:51:52.107Z,0.00
2019-03-31T01:52:52.095Z,0.00
2019-03-31T01:53:52.085Z,0.00
2019-03-31T01:54:52.076Z,0.00
2019-03-31T01:55:52.073Z,0.00
2019-03-31T01:56:52.055Z,0.00
2019-03-31T01:57:52.042Z,0.00
2019-03-31T01:58:52.031Z,0.00
2019-03-31T01:59:52.021Z,0.00
2019-03-31T02:00:52.024Z,0.00
2019-03-31T02:02:03.597Z,0.00
2019-03-31T02:02:52.986Z,0.00
2019-03-31T02:03:51.977Z,0.00
2019-03-31T02:04:51.966Z,0.00
2019-03-31T02:05:51.966Z,0.00
2019-03-31T02:06:51.944Z,0.00
2019-03-31T02:07:51.934Z,0.00
2019-03-31T02:08:51.927Z,0.00
2019-03-31T02:09:51.912Z,0.00
2019-03-31T02:10:51.909Z,0.00
2019-03-31T02:11:51.889Z,0.00
2019-03-31T02:12:51.882Z,0.00
2019-03-31T02:13:51.867Z,0.00
2019-03-31T02:14:51.856Z,0.00
2019-03-31T02:15:52.136Z,0.00
2019-03-31T02:16:51.834Z,0.00
2019-03-31T02:17:51.823Z,0.00
2019-03-31T02:18:51.811Z,0.00
2019-03-31T02:19:51.801Z,0.00
2019-03-31T02:20:51.793Z,0.00
2019-03-31T02:21:51.789Z,0.00
2019-03-31T02:22:51.768Z,0.00
2019-03-31T02:23:51.757Z,0.00
2019-03-31T02:24:51.746Z,0.00
2019-03-31T02:25:51.739Z,0.00
2019-03-31T02:26:51.735Z,0.00
2019-03-31T02:27:51.714Z,0.00
2019-03-31T02:28:51.703Z,0.00
2019-03-31T02:29:51.692Z,0.00
2019-03-31T02:30:51.683Z,0.00
2019-03-31T02:31:51.695Z,0.00
2019-03-31T02:32:51.661Z,0.00
2019-03-31T02:33:51.654Z,0.00
2019-03-31T02:34:51.638Z,0.00
2019-03-31T02:35:51.652Z,0.00
2019-03-31T02:36:51.628Z,0.00
2019-03-31T02:37:51.606Z,0.00
2019-03-31T02:38:51.595Z,0.00
2019-03-31T02:39:51.586Z,0.00
2019-03-31T02:40:51.573Z,0.00
2019-03-31T02:41:51.571Z,0.00
2019-03-31T02:42:51.552Z,0.00
2019-03-31T02:43:51.540Z,0.00
2019-03-31T02:44:51.531Z,0.00
2019-03-31T02:45:51.637Z,0.00
2019-03-31T02:46:51.519Z,0.00
2019-03-31T02:47:51.503Z,0.00
2019-03-31T02:48:51.498Z,0.00
2019-03-31T02:49:51.475Z,0.00
2019-03-31T02:50:51.465Z,0.00
2019-03-31T02:51:51.463Z,0.00
2019-03-31T02:52:51.443Z,0.00
2019-03-31T02:53:51.433Z,0.00
2019-03-31T02:54:51.425Z,0.00
2019-03-31T02:55:51.518Z,0.00
2019-03-31T02:56:51.409Z,0.00
2019-03-31T02:57:51.391Z,0.00
2019-03-31T02:58:51.381Z,0.00
2019-03-31T02:59:51.373Z,0.00
2019-03-31T03:00:51.368Z,0.00
2019-03-31T03:01:51.355Z,0.00
2019-03-31T03:02:51.342Z,0.00
2019-03-31T03:03:51.326Z,0.00
2019-03-31T03:04:51.315Z,0.00
2019-03-31T03:05:51.323Z,0.00
2019-03-31T03:06:51.305Z,0.00
2019-03-31T03:07:51.283Z,0.00
2019-03-31T03:08:51.272Z,0.00
2019-03-31T03:09:51.269Z,0.00
2019-03-31T03:10:51.249Z,0.00
2019-03-31T03:11:51.256Z,0.00
2019-03-31T03:12:51.230Z,0.00
2019-03-31T03:13:51.228Z,0.00
2019-03-31T03:14:51.208Z,0.00
2019-03-31T03:15:51.198Z,0.00
2019-03-31T03:16:51.494Z,0.00
2019-03-31T03:17:51.176Z,0.00
2019-03-31T03:18:51.164Z,0.00
2019-03-31T03:19:51.155Z,0.00
2019-03-31T03:20:51.143Z,0.00
2019-03-31T03:21:51.132Z,0.00
2019-03-31T03:22:51.141Z,0.00
2019-03-31T03:23:51.125Z,0.00
2019-03-31T03:24:51.103Z,0.00
2019-03-31T03:25:56.282Z,0.00
2019-03-31T03:26:52.086Z,0.00
2019-03-31T03:27:51.082Z,0.00
2019-03-31T03:28:51.062Z,0.00
2019-03-31T03:29:51.065Z,0.00
2019-03-31T03:30:51.107Z,0.00
2019-03-31T03:31:51.196Z,0.00
2019-03-31T03:33:13.499Z,0.00
2019-03-31T03:33:52.031Z,0.00
2019-03-31T03:34:50.997Z,0.00
2019-03-31T03:35:50.998Z,0.00
2019-03-31T03:36:50.973Z,0.00
2019-03-31T03:37:50.970Z,0.00
2019-03-31T03:38:50.950Z,0.00
2019-03-31T03:39:50.966Z,0.00
2019-03-31T03:40:50.930Z,0.00
2019-03-31T03:41:50.922Z,0.00
2019-03-31T03:42:50.921Z,0.00
2019-03-31T03:43:55.858Z,0.00
2019-03-31T03:44:51.888Z,0.00
2019-03-31T03:45:50.878Z,0.00
2019-03-31T03:46:50.866Z,0.00
2019-03-31T03:47:50.868Z,0.00
2019-03-31T03:48:50.884Z,0.00
2019-03-31T03:49:50.843Z,0.00
2019-03-31T03:50:50.847Z,0.00
2019-03-31T03:51:50.814Z,0.00
2019-03-31T03:52:50.816Z,0.00
2019-03-31T03:53:50.790Z,0.00
2019-03-31T03:54:50.781Z,0.00
2019-03-31T03:55:50.768Z,0.00
2019-03-31T03:56:50.763Z,0.00
2019-03-31T03:57:50.760Z,0.00
2019-03-31T03:58:50.746Z,0.00
2019-03-31T03:59:50.734Z,0.00
2019-03-31T04:00:50.731Z,0.00
2019-03-31T04:01:50.714Z,0.00
2019-03-31T04:02:50.730Z,0.00
2019-03-31T04:03:50.687Z,0.00
2019-03-31T04:04:50.675Z,0.00
2019-03-31T04:05:50.661Z,0.00
2019-03-31T04:06:50.659Z,0.00
2019-03-31T04:07:50.648Z,0.00
2019-03-31T04:08:50.632Z,4.00
2019-03-31T04:09:50.627Z,4.00
2019-03-31T04:10:50.612Z,0.00
2019-03-31T04:11:50.598Z,4.00
2019-03-31T04:12:50.597Z,4.00
2019-03-31T04:13:50.596Z,4.00
2019-03-31T04:14:50.570Z,4.00
2019-03-31T04:15:50.557Z,4.00
2019-03-31T04:16:50.572Z,4.00
2019-03-31T04:17:50.543Z,8.00
2019-03-31T04:18:50.523Z,4.00
2019-03-31T04:19:50.515Z,8.00
2019-03-31T04:20:50.502Z,12.00
2019-03-31T04:21:50.516Z,12.00
2019-03-31T04:22:50.498Z,16.00
2019-03-31T04:23:50.471Z,16.00
2019-03-31T04:24:50.469Z,20.00
2019-03-31T04:25:50.449Z,20.00
2019-03-31T04:26:50.447Z,28.00
2019-03-31T04:27:50.439Z,32.00
2019-03-31T04:28:50.437Z,32.00
2019-03-31T04:29:50.407Z,40.00
2019-03-31T04:30:50.396Z,44.00
2019-03-31T04:31:50.391Z,52.00
2019-03-31T04:32:50.390Z,60.00
2019-03-31T04:33:52.841Z,68.00
2019-03-31T04:34:50.359Z,76.00
2019-03-31T04:35:50.346Z,84.00
2019-03-31T04:36:50.350Z,96.00
2019-03-31T04:37:50.357Z,108.00
2019-03-31T04:38:50.313Z,124.00
2019-03-31T04:39:50.304Z,140.00
2019-03-31T04:40:50.294Z,148.00
2019-03-31T04:41:50.277Z,164.00
2019-03-31T04:42:50.279Z,184.00
2019-03-31T04:43:50.258Z,196.00
2019-03-31T04:44:50.249Z,216.00
2019-03-31T04:45:50.236Z,236.00
2019-03-31T04:46:50.225Z,256.00
2019-03-31T04:47:50.220Z,276.00
2019-03-31T04:48:50.204Z,300.00
2019-03-31T04:49:50.191Z,316.00
2019-03-31T04:50:52.086Z,340.00
2019-03-31T04:51:50.168Z,376.00
2019-03-31T04:52:50.166Z,420.00
2019-03-31T04:53:50.147Z,472.00
2019-03-31T04:54:50.139Z,524.00
2019-03-31T04:55:50.125Z,580.00
2019-03-31T04:56:50.116Z,632.00
2019-03-31T04:57:50.295Z,676.00
2019-03-31T04:58:50.097Z,724.00
2019-03-31T04:59:50.083Z,784.00
2019-03-31T05:00:50.072Z,844.00
2019-03-31T05:01:50.064Z,912.00
2019-03-31T05:02:50.052Z,984.00
2019-03-31T05:04:04.059Z,1048.00
2019-03-31T05:04:51.030Z,1120.00
2019-03-31T05:05:50.047Z,1192.00
2019-03-31T05:06:50.010Z,1268.00
2019-03-31T05:07:49.997Z,1360.00
2019-03-31T05:08:49.996Z,1456.00
2019-03-31T05:09:49.976Z,1556.00
2019-03-31T05:10:49.965Z,1648.00
2019-03-31T05:11:49.958Z,1752.00
2019-03-31T05:12:49.945Z,1868.00
2019-03-31T05:13:49.941Z,1956.00
2019-03-31T05:14:49.927Z,2060.00
2019-03-31T05:15:49.913Z,2156.00
2019-03-31T05:16:49.901Z,2220.00
2019-03-31T05:17:49.893Z,2312.00
2019-03-31T05:18:49.893Z,2404.00
2019-03-31T05:19:49.875Z,2492.00
2019-03-31T05:20:49.859Z,2616.00
2019-03-31T05:21:49.848Z,2700.00
2019-03-31T05:22:52.677Z,2748.00
2019-03-31T05:23:49.837Z,2804.00
2019-03-31T05:24:49.815Z,2832.00
2019-03-31T05:25:49.803Z,2920.00
2019-03-31T05:26:49.792Z,2884.00
2019-03-31T05:27:49.782Z,2836.00
2019-03-31T05:28:49.779Z,2864.00
2019-03-31T05:29:49.759Z,2936.00
2019-03-31T05:30:49.753Z,2764.00
2019-03-31T05:31:49.738Z,2500.00
2019-03-31T05:32:49.727Z,2372.00
2019-03-31T05:33:49.724Z,2300.00
2019-03-31T05:34:49.704Z,2176.00
2019-03-31T05:35:49.693Z,1860.00
2019-03-31T05:36:49.682Z,2392.00
2019-03-31T05:37:51.085Z,2516.00
2019-03-31T05:38:49.670Z,2580.00
2019-03-31T05:39:49.650Z,2192.00
2019-03-31T05:40:49.669Z,2020.00
2019-03-31T05:41:49.632Z,1760.00
2019-03-31T05:42:49.617Z,1276.00
2019-03-31T05:43:49.620Z,1188.00
2019-03-31T05:44:49.596Z,964.00
2019-03-31T05:45:52.344Z,932.00
2019-03-31T05:46:49.576Z,912.00
2019-03-31T05:47:49.565Z,848.00
2019-03-31T05:48:49.561Z,924.00
2019-03-31T05:49:49.544Z,868.00
2019-03-31T05:50:49.530Z,792.00
2019-03-31T05:51:49.519Z,828.00
2019-03-31T05:52:49.507Z,868.00
2019-03-31T05:53:49.509Z,888.00
2019-03-31T05:54:49.487Z,892.00
2019-03-31T05:55:49.475Z,888.00
2019-03-31T05:56:49.466Z,1044.00
2019-03-31T05:57:49.454Z,1140.00
2019-03-31T05:58:49.454Z,1320.00
2019-03-31T05:59:49.433Z,1656.00
2019-03-31T06:00:49.431Z,2000.00
2019-03-31T06:01:49.411Z,2544.00
2019-03-31T06:02:49.400Z,2464.00
2019-03-31T06:03:49.399Z,2796.00
2019-03-31T06:04:49.384Z,3108.00
2019-03-31T06:05:49.370Z,3064.00
2019-03-31T06:06:49.363Z,3144.00
2019-03-31T06:07:49.348Z,3680.00
2019-03-31T06:08:49.344Z,4016.00
2019-03-31T06:09:49.324Z,5196.00
2019-03-31T06:10:49.313Z,6732.00
2019-03-31T06:11:49.302Z,8160.00
2019-03-31T06:12:49.291Z,17920.00
2019-03-31T06:13:49.290Z,14688.00
2019-03-31T06:14:49.271Z,11124.00
2019-03-31T06:15:49.260Z,9844.00
2019-03-31T06:16:49.247Z,9276.00
2019-03-31T06:17:49.238Z,9992.00
2019-03-31T06:18:49.237Z,10728.00
2019-03-31T06:19:49.215Z,9636.00
2019-03-31T06:20:49.207Z,10752.00
2019-03-31T06:21:49.193Z,10920.00
2019-03-31T06:22:49.182Z,11312.00
2019-03-31T06:23:49.272Z,10508.00
2019-03-31T06:24:49.161Z,10512.00
2019-03-31T06:25:49.149Z,10876.00
2019-03-31T06:26:49.138Z,10396.00
2019-03-31T06:27:49.128Z,10816.00
2019-03-31T06:28:49.125Z,10560.00
2019-03-31T06:29:49.105Z,11284.00
2019-03-31T06:30:49.094Z,11248.00
2019-03-31T06:31:49.084Z,11256.00
2019-03-31T06:32:49.073Z,11504.00
2019-03-31T06:33:49.071Z,11508.00
2019-03-31T06:34:49.054Z,11484.00
2019-03-31T06:35:49.042Z,11580.00
2019-03-31T06:36:49.029Z,11948.00
2019-03-31T06:37:49.023Z,12868.00
2019-03-31T06:38:49.016Z,13312.00
2019-03-31T06:39:48.997Z,12320.00
2019-03-31T06:40:48.987Z,14592.00
2019-03-31T06:41:48.976Z,15680.00
2019-03-31T06:42:48.964Z,14308.00
2019-03-31T06:43:48.981Z,16672.00
2019-03-31T06:44:48.945Z,15744.00
2019-03-31T06:45:48.932Z,15104.00
2019-03-31T06:46:48.921Z,14724.00
2019-03-31T06:47:48.909Z,17024.00
2019-03-31T06:48:48.900Z,13480.00
2019-03-31T06:49:48.898Z,14752.00
2019-03-31T06:50:48.879Z,14452.00
2019-03-31T06:51:48.869Z,15584.00
2019-03-31T06:52:48.857Z,16128.00
2019-03-31T06:53:48.846Z,19968.00
2019-03-31T06:54:48.844Z,19488.00
2019-03-31T06:55:48.827Z,28032.00
2019-03-31T06:56:48.814Z,25952.00
2019-03-31T06:57:48.804Z,27648.00
2019-03-31T06:58:48.797Z,29952.00
2019-03-31T06:59:48.792Z,29824.00
2019-03-31T07:00:48.771Z,30624.00
2019-03-31T07:01:48.762Z,31392.00
2019-03-31T07:02:48.750Z,30944.00
2019-03-31T07:03:48.738Z,21216.00
2019-03-31T07:05:00.380Z,15456.00
2019-03-31T07:05:49.716Z,12716.00
2019-03-31T07:06:48.707Z,16672.00
2019-03-31T07:07:48.695Z,10128.00
2019-03-31T07:08:48.685Z,5136.00
2019-03-31T07:09:48.681Z,4180.00
2019-03-31T07:10:48.663Z,3876.00
2019-03-31T07:11:48.652Z,3428.00
2019-03-31T07:12:48.641Z,2832.00
2019-03-31T07:13:48.631Z,2564.00
2019-03-31T07:14:48.633Z,2752.00
2019-03-31T07:15:48.612Z,3032.00
2019-03-31T07:16:48.598Z,3220.00
2019-03-31T07:17:48.593Z,2876.00
2019-03-31T07:18:48.575Z,2892.00
2019-03-31T07:19:48.573Z,3160.00
2019-03-31T07:20:48.554Z,3424.00
2019-03-31T07:21:48.549Z,2984.00
2019-03-31T07:22:48.532Z,2700.00
2019-03-31T07:23:48.522Z,2848.00
2019-03-31T07:24:48.519Z,3172.00
2019-03-31T07:25:48.507Z,3352.00
2019-03-31T07:26:48.492Z,2984.00
2019-03-31T07:27:48.477Z,2792.00
2019-03-31T07:28:48.466Z,2892.00
2019-03-31T07:29:48.464Z,2948.00
2019-03-31T07:30:48.444Z,3012.00
2019-03-31T07:31:48.435Z,3236.00
2019-03-31T07:32:48.422Z,3088.00
2019-03-31T07:33:48.414Z,2916.00
2019-03-31T07:34:48.409Z,2656.00
2019-03-31T07:35:48.390Z,2668.00
2019-03-31T07:36:48.388Z,2920.00
2019-03-31T07:37:48.371Z,3028.00
2019-03-31T07:38:48.553Z,2760.00
2019-03-31T07:39:48.356Z,2824.00
2019-03-31T07:40:48.382Z,2960.00
2019-03-31T07:41:48.329Z,2704.00
2019-03-31T07:42:51.140Z,2552.00
2019-03-31T07:43:48.305Z,2460.00
2019-03-31T07:44:48.302Z,2444.00
2019-03-31T07:45:48.282Z,2512.00
2019-03-31T07:46:48.272Z,2528.00
2019-03-31T07:47:48.261Z,2632.00
2019-03-31T07:48:48.249Z,2680.00
2019-03-31T07:49:48.247Z,2812.00
2019-03-31T07:50:48.233Z,2892.00
2019-03-31T07:51:48.216Z,2728.00
2019-03-31T07:52:48.205Z,2628.00
2019-03-31T07:53:48.194Z,2624.00
2019-03-31T07:54:48.193Z,2564.00
2019-03-31T07:55:48.174Z,2352.00
2019-03-31T07:56:48.162Z,2300.00
2019-03-31T07:57:48.166Z,2256.00
2019-03-31T07:58:48.256Z,2232.00
2019-03-31T07:59:48.187Z,2408.00
2019-03-31T08:00:48.116Z,2548.00
2019-03-31T08:01:48.106Z,2528.00
2019-03-31T08:02:48.094Z,2576.00
2019-03-31T08:03:48.085Z,2688.00
2019-03-31T08:04:48.083Z,2668.00
2019-03-31T08:05:48.060Z,2648.00
2019-03-31T08:06:48.050Z,2648.00
2019-03-31T08:07:48.044Z,2544.00
2019-03-31T08:08:48.027Z,2492.00
2019-03-31T08:09:48.029Z,2404.00
2019-03-31T08:10:48.006Z,2316.00
2019-03-31T08:11:47.999Z,2324.00
2019-03-31T08:12:47.984Z,2400.00
2019-03-31T08:13:47.974Z,2540.00
2019-03-31T08:14:47.970Z,2680.00
2019-03-31T08:15:47.951Z,2944.00
2019-03-31T08:16:47.941Z,3444.00
2019-03-31T08:17:47.932Z,4720.00
2019-03-31T08:18:47.924Z,7064.00
2019-03-31T08:19:47.921Z,6664.00
2019-03-31T08:20:47.897Z,6040.00
2019-03-31T08:21:47.886Z,6328.00
2019-03-31T08:22:47.878Z,6996.00
2019-03-31T08:23:47.867Z,6832.00
2019-03-31T08:24:47.862Z,6880.00
2019-03-31T08:25:47.845Z,7036.00
2019-03-31T08:26:47.831Z,7284.00
2019-03-31T08:27:47.821Z,8096.00
2019-03-31T08:28:47.810Z,7968.00
2019-03-31T08:29:55.677Z,6912.00
2019-03-31T08:30:48.784Z,7356.00
2019-03-31T08:31:47.775Z,6144.00
2019-03-31T08:32:47.770Z,5968.00
2019-03-31T08:33:47.755Z,5588.00
2019-03-31T08:34:47.768Z,4740.00
2019-03-31T08:35:48.012Z,4276.00
2019-03-31T08:36:47.722Z,4100.00
2019-03-31T08:37:47.709Z,3268.00
2019-03-31T08:38:47.697Z,2824.00
2019-03-31T08:39:47.686Z,2408.00
2019-03-31T08:40:47.688Z,2280.00
2019-03-31T08:41:47.665Z,2332.00
2019-03-31T08:42:47.653Z,2268.00
2019-03-31T08:43:47.642Z,2184.00
2019-03-31T08:44:47.630Z,1992.00
2019-03-31T08:45:47.627Z,1944.00
2019-03-31T08:46:47.609Z,1816.00
2019-03-31T08:47:47.599Z,1892.00
2019-03-31T08:48:47.586Z,2152.00
2019-03-31T08:49:47.575Z,2264.00
2019-03-31T08:50:47.571Z,2272.00
2019-03-31T08:51:47.556Z,2392.00
2019-03-31T08:52:47.541Z,2596.00
2019-03-31T08:53:47.529Z,2712.00
2019-03-31T08:54:47.518Z,2876.00
2019-03-31T08:55:47.516Z,3244.00
2019-03-31T08:56:47.497Z,3924.00
2019-03-31T08:57:47.486Z,4320.00
2019-03-31T08:58:47.474Z,3988.00
2019-03-31T08:59:47.463Z,3376.00
2019-03-31T09:00:47.581Z,2644.00
2019-03-31T09:01:47.450Z,2136.00
2019-03-31T09:02:47.430Z,1872.00
2019-03-31T09:03:47.418Z,1660.00
2019-03-31T09:04:47.410Z,1528.00
2019-03-31T09:06:00.672Z,1456.00
2019-03-31T09:06:48.384Z,1464.00
2019-03-31T09:07:47.374Z,1576.00
2019-03-31T09:08:47.367Z,1632.00
2019-03-31T09:09:47.352Z,1676.00
2019-03-31T09:10:47.352Z,1672.00
2019-03-31T09:11:47.331Z,1604.00
2019-03-31T09:12:48.710Z,1424.00
2019-03-31T09:13:47.306Z,1260.00
2019-03-31T09:14:47.294Z,1132.00
2019-03-31T09:15:47.298Z,1076.00
2019-03-31T09:16:47.274Z,1052.00
2019-03-31T09:17:47.261Z,1040.00
2019-03-31T09:18:47.255Z,1028.00
2019-03-31T09:19:47.239Z,1016.00
2019-03-31T09:20:47.238Z,1020.00
2019-03-31T09:21:47.223Z,1064.00
2019-03-31T09:22:47.209Z,1124.00
2019-03-31T09:23:47.198Z,1172.00
2019-03-31T09:24:47.187Z,1192.00
2019-03-31T09:25:47.813Z,1208.00
2019-03-31T09:26:47.166Z,1160.00
2019-03-31T09:27:47.164Z,1152.00
2019-03-31T09:28:47.143Z,1236.00
2019-03-31T09:29:47.136Z,1308.00
2019-03-31T09:30:47.146Z,1324.00
2019-03-31T09:31:47.114Z,1424.00
2019-03-31T09:32:47.100Z,1472.00
2019-03-31T09:33:47.088Z,1468.00
2019-03-31T09:34:47.079Z,1468.00
2019-03-31T09:35:47.067Z,1460.00
2019-03-31T09:36:47.064Z,1464.00
2019-03-31T09:37:47.046Z,1420.00
2019-03-31T09:38:48.518Z,1360.00
2019-03-31T09:39:47.024Z,1228.00
2019-03-31T09:40:47.015Z,1140.00
2019-03-31T09:41:47.015Z,1036.00
2019-03-31T09:42:46.993Z,948.00
2019-03-31T09:43:46.983Z,896.00
2019-03-31T09:44:46.974Z,900.00
2019-03-31T09:45:46.962Z,900.00
2019-03-31T09:46:46.967Z,892.00
2019-03-31T09:47:46.938Z,904.00
2019-03-31T09:48:46.931Z,900.00
2019-03-31T09:49:46.919Z,932.00
2019-03-31T09:50:46.909Z,992.00
2019-03-31T09:51:46.904Z,1084.00
2019-03-31T09:52:46.885Z,1176.00
2019-03-31T09:53:46.874Z,1260.00
2019-03-31T09:54:46.863Z,1384.00
2019-03-31T09:55:46.858Z,1480.00
2019-03-31T09:56:46.852Z,1572.00
2019-03-31T09:57:46.831Z,1684.00
2019-03-31T09:58:46.824Z,1720.00
2019-03-31T09:59:46.810Z,1776.00
2019-03-31T10:00:46.806Z,1828.00
2019-03-31T10:01:46.806Z,1864.00
2019-03-31T10:02:46.792Z,1924.00
2019-03-31T10:03:46.768Z,2036.00
2019-03-31T10:04:46.761Z,2100.00
2019-03-31T10:05:48.152Z,2260.00
2019-03-31T10:06:46.767Z,2420.00
2019-03-31T10:07:46.725Z,2568.00
2019-03-31T10:08:46.715Z,2760.00
2019-03-31T10:09:46.703Z,2976.00
2019-03-31T10:10:46.695Z,3096.00
2019-03-31T10:11:46.682Z,3344.00
2019-03-31T10:12:46.679Z,3432.00
2019-03-31T10:13:46.663Z,3548.00
2019-03-31T10:14:46.650Z,3780.00
2019-03-31T10:15:46.639Z,3976.00
2019-03-31T10:16:46.630Z,4328.00
2019-03-31T10:17:46.686Z,4684.00
2019-03-31T10:18:46.607Z,6064.00
2019-03-31T10:19:46.604Z,7592.00
2019-03-31T10:20:46.589Z,5968.00
2019-03-31T10:21:46.575Z,4052.00
2019-03-31T10:22:46.573Z,3616.00
2019-03-31T10:23:46.553Z,3080.00
2019-03-31T10:24:46.543Z,2716.00
2019-03-31T10:25:46.539Z,2504.00
2019-03-31T10:26:46.521Z,2224.00
2019-03-31T10:27:46.627Z,2088.00
2019-03-31T10:28:46.518Z,2008.00
2019-03-31T10:29:46.489Z,1964.00
2019-03-31T10:30:46.479Z,1964.00
2019-03-31T10:31:46.466Z,1992.00
2019-03-31T10:32:46.487Z,2056.00
2019-03-31T10:33:46.443Z,2052.00
2019-03-31T10:34:46.434Z,1992.00
2019-03-31T10:35:46.422Z,1948.00
2019-03-31T10:36:46.439Z,1892.00
2019-03-31T10:37:46.400Z,1816.00
2019-03-31T10:38:46.404Z,1800.00
2019-03-31T10:39:46.377Z,1872.00
2019-03-31T10:40:46.367Z,1964.00
2019-03-31T10:41:46.356Z,2076.00
2019-03-31T10:42:46.347Z,2124.00
2019-03-31T10:43:46.349Z,2192.00
2019-03-31T10:44:46.323Z,2320.00
2019-03-31T10:45:46.313Z,2576.00
2019-03-31T10:46:46.301Z,2848.00
2019-03-31T10:47:46.290Z,3144.00
2019-03-31T10:48:46.287Z,3208.00
2019-03-31T10:49:46.269Z,3112.00
2019-03-31T10:50:46.255Z,3012.00
2019-03-31T10:51:46.248Z,3116.00
2019-03-31T10:52:46.239Z,3220.00
2019-03-31T10:53:46.232Z,3268.00
2019-03-31T10:54:46.211Z,3404.00
2019-03-31T10:55:46.201Z,5484.00
2019-03-31T10:56:46.190Z,6096.00
2019-03-31T10:57:46.181Z,5960.00
2019-03-31T10:58:46.178Z,5968.00
2019-03-31T10:59:46.157Z,5980.00
2019-03-31T11:00:46.146Z,6080.00
2019-03-31T11:01:46.134Z,6160.00
2019-03-31T11:02:46.123Z,6248.00
2019-03-31T11:03:46.127Z,6440.00
2019-03-31T11:04:46.130Z,6744.00
2019-03-31T11:05:46.278Z,6816.00
2019-03-31T11:06:58.438Z,4444.00
2019-03-31T11:07:47.070Z,4100.00
2019-03-31T11:08:46.082Z,4036.00
2019-03-31T11:09:46.048Z,4056.00
2019-03-31T11:10:46.041Z,4116.00
2019-03-31T11:11:46.032Z,4188.00
2019-03-31T11:12:46.017Z,4444.00
2019-03-31T11:13:46.004Z,4528.00
2019-03-31T11:14:46.002Z,4620.00
2019-03-31T11:15:45.986Z,4648.00
2019-03-31T11:16:45.975Z,4500.00
2019-03-31T11:17:45.961Z,4400.00
2019-03-31T11:18:45.950Z,4688.00
2019-03-31T11:19:45.948Z,6440.00
2019-03-31T11:20:45.928Z,4356.00
2019-03-31T11:21:45.920Z,4352.00
2019-03-31T11:22:45.907Z,6416.00
2019-03-31T11:23:45.896Z,6292.00
2019-03-31T11:24:45.897Z,6216.00
2019-03-31T11:25:45.873Z,6176.00
2019-03-31T11:26:45.869Z,6124.00
2019-03-31T11:27:45.852Z,6036.00
2019-03-31T11:28:45.849Z,6028.00
2019-03-31T11:29:45.848Z,6056.00
2019-03-31T11:30:45.821Z,6216.00
2019-03-31T11:31:45.808Z,6200.00
2019-03-31T11:32:45.799Z,6312.00
2019-03-31T11:33:45.788Z,6436.00
2019-03-31T11:34:45.786Z,6628.00
2019-03-31T11:35:45.765Z,6808.00
2019-03-31T11:36:45.756Z,6836.00
2019-03-31T11:37:45.743Z,6908.00
2019-03-31T11:38:45.733Z,7060.00
2019-03-31T11:39:45.735Z,7196.00
2019-03-31T11:40:45.713Z,7232.00
2019-03-31T11:41:45.698Z,7160.00
2019-03-31T11:42:45.688Z,6744.00
2019-03-31T11:43:45.677Z,7196.00
2019-03-31T11:44:45.696Z,7184.00
2019-03-31T11:45:45.658Z,5092.00
2019-03-31T11:46:45.643Z,5492.00
2019-03-31T11:47:45.632Z,5812.00
2019-03-31T11:48:45.622Z,4396.00
2019-03-31T11:49:45.630Z,4260.00
2019-03-31T11:50:45.603Z,4196.00
2019-03-31T11:51:45.589Z,4168.00
2019-03-31T11:52:45.578Z,4072.00
2019-03-31T11:53:45.566Z,4140.00
2019-03-31T11:54:46.028Z,4220.00
2019-03-31T11:55:45.550Z,4236.00
2019-03-31T11:56:45.533Z,4244.00
2019-03-31T11:57:45.531Z,4184.00
2019-03-31T11:58:45.524Z,4192.00
2019-03-31T11:59:45.497Z,6328.00
2019-03-31T12:00:45.502Z,5132.00
2019-03-31T12:01:45.576Z,3584.00
2019-03-31T12:02:45.471Z,3344.00
2019-03-31T12:03:45.459Z,3172.00
2019-03-31T12:04:45.449Z,3012.00
2019-03-31T12:05:45.448Z,2896.00
2019-03-31T12:06:45.424Z,2856.00
2019-03-31T12:07:47.142Z,2868.00
2019-03-31T12:08:45.408Z,2924.00
2019-03-31T12:09:45.391Z,3008.00
2019-03-31T12:10:45.394Z,3064.00
2019-03-31T12:11:45.789Z,3096.00
2019-03-31T12:12:45.361Z,3136.00
2019-03-31T12:13:45.348Z,3200.00
2019-03-31T12:14:59.566Z,3260.00
2019-03-31T12:15:46.366Z,3320.00
2019-03-31T12:16:45.321Z,3400.00
2019-03-31T12:17:45.306Z,5228.00
2019-03-31T12:18:45.294Z,4304.00
2019-03-31T12:19:48.634Z,5896.00
2019-03-31T12:20:45.280Z,5832.00
2019-03-31T12:21:45.264Z,5648.00
2019-03-31T12:22:45.250Z,5760.00
2019-03-31T12:23:45.259Z,5864.00
2019-03-31T12:24:45.332Z,6000.00
2019-03-31T12:25:45.228Z,6020.00
2019-03-31T12:26:45.211Z,6040.00
2019-03-31T12:27:45.196Z,6116.00
2019-03-31T12:28:45.186Z,6148.00
2019-03-31T12:29:45.175Z,6244.00
2019-03-31T12:30:45.176Z,6328.00